sensor_id;sensor_type;location;lat;lon;timestamp;pressure;altitude;pressure_sealevel;temperature;humidity
11605;BME280;5858;43.076;25.626;2023-06-04T00:00:13;99394.59;;;18.42;100.00
11605;BME280;5858;43.076;25.626;2023-06-04T00:02:40;99405.97;;;18.51;100.00
11605;BME280;5858;43.076;25.626;2023-06-04T00:05:07;99425.84;;;18.86;100.00
11605;BME280;5858;43.076;25.626;2023-06-04T00:07:35;99454.75;;;18.93;100.00
11605;BME280;5858;43.076;25.626;2023-06-04T00:10:03;99409.66;;;18.68;100.00
11605;BME280;5858;43.076;25.626;2023-06-04T00:12:30;99408.22;;;18.54;100.00
11605;BME280;5858;43.076;25.626;2023-06-04T00:14:58;99398.34;;;18.30;100.00
11605;BME280;5858;43.076;25.626;2023-06-04T00:17:25;99349.47;;;18.36;100.00
11605;BME280;5858;43.076;25.626;2023-06-04T00:19:52;99391.91;;;18.42;100.00
11605;BME280;5858;43.076;25.626;2023-06-04T00:22:19;99425.81;;;18.75;100.00
11605;BME280;5858;43.076;25.626;2023-06-04T00:24:46;99453.34;;;19.02;100.00
11605;BME280;5858;43.076;25.626;2023-06-04T00:27:13;99484.00;;;19.02;100.00
11605;BME280;5858;43.076;25.626;2023-06-04T00:29:40;99475.63;;;19.04;100.00
11605;BME280;5858;43.076;25.626;2023-06-04T00:32:09;99383.00;;;18.53;100.00
11605;BME280;5858;43.076;25.626;2023-06-04T00:34:36;99456.00;;;18.78;100.00
11605;BME280;5858;43.076;25.626;2023-06-04T00:37:04;99471.25;;;19.14;100.00
11605;BME280;5858;43.076;25.626;2023-06-04T00:39:31;99479.41;;;19.26;100.00
11605;BME280;5858;43.076;25.626;2023-06-04T00:42:00;99476.09;;;19.01;100.00
11605;BME280;5858;43.076;25.626;2023-06-04T00:44:27;99408.69;;;18.51;100.00
11605;BME280;5858;43.076;25.626;2023-06-04T00:46:54;99478.16;;;18.75;100.00
11605;BME280;5858;43.076;25.626;2023-06-04T00:49:22;99489.13;;;18.80;100.00
11605;BME280;5858;43.076;25.626;2023-06-04T00:51:50;99481.75;;;18.58;100.00
11605;BME280;5858;43.076;25.626;2023-06-04T00:54:19;99423.78;;;18.29;100.00
11605;BME280;5858;43.076;25.626;2023-06-04T00:56:47;99452.84;;;18.21;100.00
11605;BME280;5858;43.076;25.626;2023-06-04T00:59:14;99462.53;;;18.29;100.00
11605;BME280;5858;43.076;25.626;2023-06-04T01:01:46;99479.66;;;18.41;100.00
11605;BME280;5858;43.076;25.626;2023-06-04T01:04:23;99406.72;;;17.98;100.00
11605;BME280;5858;43.076;25.626;2023-06-04T01:06:53;99486.91;;;18.47;100.00
11605;BME280;5858;43.076;25.626;2023-06-04T01:09:22;99454.84;;;18.14;100.00
11605;BME280;5858;43.076;25.626;2023-06-04T01:11:49;99409.03;;;17.94;100.00
11605;BME280;5858;43.076;25.626;2023-06-04T01:14:16;99324.59;;;17.38;100.00
11605;BME280;5858;43.076;25.626;2023-06-04T01:16:48;99462.59;;;18.11;100.00
11605;BME280;5858;43.076;25.626;2023-06-04T01:19:40;99299.91;;;16.97;100.00
11605;BME280;5858;43.076;25.626;2023-06-04T01:22:20;99433.53;;;17.70;100.00
11605;BME280;5858;43.076;25.626;2023-06-04T01:24:56;99442.16;;;17.78;100.00
11605;BME280;5858;43.076;25.626;2023-06-04T01:27:27;99471.91;;;17.97;100.00
11605;BME280;5858;43.076;25.626;2023-06-04T01:29:55;99446.59;;;17.73;100.00
11605;BME280;5858;43.076;25.626;2023-06-04T01:32:23;99471.78;;;17.91;100.00
11605;BME280;5858;43.076;25.626;2023-06-04T01:34:52;99438.53;;;17.66;100.00
11605;BME280;5858;43.076;25.626;2023-06-04T01:37:19;99312.66;;;16.90;100.00
11605;BME280;5858;43.076;25.626;2023-06-04T01:39:46;99421.03;;;17.50;100.00
11605;BME280;5858;43.076;25.626;2023-06-04T01:42:13;99386.81;;;17.38;100.00
11605;BME280;5858;43.076;25.626;2023-06-04T01:44:40;99452.69;;;17.68;100.00
11605;BME280;5858;43.076;25.626;2023-06-04T01:47:07;99408.53;;;17.31;100.00
11605;BME280;5858;43.076;25.626;2023-06-04T01:49:34;99470.00;;;17.67;100.00
11605;BME280;5858;43.076;25.626;2023-06-04T01:52:05;99362.16;;;16.91;100.00
11605;BME280;5858;43.076;25.626;2023-06-04T01:54:32;99474.09;;;17.51;100.00
11605;BME280;5858;43.076;25.626;2023-06-04T01:56:59;99415.59;;;17.14;100.00
11605;BME280;5858;43.076;25.626;2023-06-04T01:59:26;99420.03;;;17.02;100.00
11605;BME280;5858;43.076;25.626;2023-06-04T02:01:53;99468.16;;;17.18;100.00
11605;BME280;5858;43.076;25.626;2023-06-04T02:04:20;99373.25;;;16.58;98.70
11605;BME280;5858;43.076;25.626;2023-06-04T02:06:48;99424.22;;;16.79;98.77
11605;BME280;5858;43.076;25.626;2023-06-04T02:09:16;99514.53;;;17.21;98.06
11605;BME280;5858;43.076;25.626;2023-06-04T02:11:43;99437.47;;;16.56;98.70
11605;BME280;5858;43.076;25.626;2023-06-04T02:14:11;99522.00;;;16.94;97.55
11605;BME280;5858;43.076;25.626;2023-06-04T02:16:38;99453.78;;;16.36;97.95
11605;BME280;5858;43.076;25.626;2023-06-04T02:19:05;99377.94;;;16.06;97.03
11605;BME280;5858;43.076;25.626;2023-06-04T02:21:33;99536.94;;;17.04;96.67
11605;BME280;5858;43.076;25.626;2023-06-04T02:24:02;99345.06;;;15.84;96.31
11605;BME280;5858;43.076;25.626;2023-06-04T02:26:32;99486.09;;;16.56;95.86
11605;BME280;5858;43.076;25.626;2023-06-04T02:28:59;99521.13;;;16.76;95.63
11605;BME280;5858;43.076;25.626;2023-06-04T02:31:25;99552.50;;;17.08;95.11
11605;BME280;5858;43.076;25.626;2023-06-04T02:33:52;99462.09;;;16.34;94.47
11605;BME280;5858;43.076;25.626;2023-06-04T02:36:19;99530.66;;;16.78;94.59
11605;BME280;5858;43.076;25.626;2023-06-04T02:38:46;99551.69;;;17.01;95.39
11605;BME280;5858;43.076;25.626;2023-06-04T02:41:13;99466.50;;;16.67;95.35
11605;BME280;5858;43.076;25.626;2023-06-04T02:43:42;99546.88;;;17.10;93.86
11605;BME280;5858;43.076;25.626;2023-06-04T02:46:08;99471.50;;;16.63;93.76
11605;BME280;5858;43.076;25.626;2023-06-04T02:48:36;99528.94;;;16.84;93.43
11605;BME280;5858;43.076;25.626;2023-06-04T02:51:03;99559.81;;;17.01;94.49
11605;BME280;5858;43.076;25.626;2023-06-04T02:53:30;99411.94;;;16.20;93.68
11605;BME280;5858;43.076;25.626;2023-06-04T02:55:57;99521.84;;;16.89;93.53
11605;BME280;5858;43.076;25.626;2023-06-04T02:58:25;99520.97;;;16.95;93.17
11605;BME280;5858;43.076;25.626;2023-06-04T03:00:53;99482.13;;;16.58;93.69
11605;BME280;5858;43.076;25.626;2023-06-04T03:03:21;99557.13;;;17.26;93.98
11605;BME280;5858;43.076;25.626;2023-06-04T03:05:48;99394.34;;;16.11;93.88
11605;BME280;5858;43.076;25.626;2023-06-04T03:08:15;99571.25;;;17.28;94.13
11605;BME280;5858;43.076;25.626;2023-06-04T03:10:42;99488.63;;;16.82;93.42
11605;BME280;5858;43.076;25.626;2023-06-04T03:13:10;99561.88;;;17.30;93.75
11605;BME280;5858;43.076;25.626;2023-06-04T03:15:38;99558.38;;;17.48;93.02
11605;BME280;5858;43.076;25.626;2023-06-04T03:18:07;99509.63;;;17.12;93.33
11605;BME280;5858;43.076;25.626;2023-06-04T03:20:34;99418.75;;;16.54;92.71
11605;BME280;5858;43.076;25.626;2023-06-04T03:23:03;99383.63;;;16.29;92.83
11605;BME280;5858;43.076;25.626;2023-06-04T03:25:30;99564.31;;;17.39;93.04
11605;BME280;5858;43.076;25.626;2023-06-04T03:27:57;99418.03;;;16.41;92.65
11605;BME280;5858;43.076;25.626;2023-06-04T03:30:24;99394.41;;;16.29;92.33
11605;BME280;5858;43.076;25.626;2023-06-04T03:32:51;99463.38;;;16.63;91.52
11605;BME280;5858;43.076;25.626;2023-06-04T03:35:19;99481.94;;;16.53;91.96
11605;BME280;5858;43.076;25.626;2023-06-04T03:37:46;99512.78;;;16.77;92.13
11605;BME280;5858;43.076;25.626;2023-06-04T03:40:13;99532.09;;;16.81;92.45
11605;BME280;5858;43.076;25.626;2023-06-04T03:42:41;99518.63;;;16.74;91.46
11605;BME280;5858;43.076;25.626;2023-06-04T03:45:10;99458.41;;;16.29;90.93
11605;BME280;5858;43.076;25.626;2023-06-04T03:47:38;99580.03;;;16.92;91.67
11605;BME280;5858;43.076;25.626;2023-06-04T03:50:06;99575.94;;;16.83;90.38
11605;BME280;5858;43.076;25.626;2023-06-04T03:52:35;99536.19;;;16.52;90.40
11605;BME280;5858;43.076;25.626;2023-06-04T03:55:02;99604.72;;;16.64;90.40
11605;BME280;5858;43.076;25.626;2023-06-04T03:57:29;99579.56;;;16.63;90.03
11605;BME280;5858;43.076;25.626;2023-06-04T03:59:56;99592.28;;;16.56;90.31
11605;BME280;5858;43.076;25.626;2023-06-04T04:02:23;99439.22;;;15.61;90.33
11605;BME280;5858;43.076;25.626;2023-06-04T04:04:50;99539.88;;;16.19;90.48
11605;BME280;5858;43.076;25.626;2023-06-04T04:07:19;99506.31;;;15.95;91.17
11605;BME280;5858;43.076;25.626;2023-06-04T04:09:49;99598.09;;;16.53;91.19
11605;BME280;5858;43.076;25.626;2023-06-04T04:12:16;99533.47;;;16.14;91.94
11605;BME280;5858;43.076;25.626;2023-06-04T04:14:43;99605.97;;;16.61;91.69
11605;BME280;5858;43.076;25.626;2023-06-04T04:17:12;99419.69;;;15.46;91.17
11605;BME280;5858;43.076;25.626;2023-06-04T04:19:39;99426.50;;;15.55;91.89
11605;BME280;5858;43.076;25.626;2023-06-04T04:22:06;99511.69;;;16.09;91.59
11605;BME280;5858;43.076;25.626;2023-06-04T04:24:34;99548.09;;;16.37;91.70
11605;BME280;5858;43.076;25.626;2023-06-04T04:27:05;99621.47;;;16.86;91.51
11605;BME280;5858;43.076;25.626;2023-06-04T04:29:37;99522.75;;;16.38;91.05
11605;BME280;5858;43.076;25.626;2023-06-04T04:32:05;99578.75;;;16.63;91.30
11605;BME280;5858;43.076;25.626;2023-06-04T04:34:36;99611.25;;;16.88;91.87
11605;BME280;5858;43.076;25.626;2023-06-04T04:37:04;99503.31;;;16.23;92.12
11605;BME280;5858;43.076;25.626;2023-06-04T04:39:35;99545.72;;;16.54;91.76
11605;BME280;5858;43.076;25.626;2023-06-04T04:42:04;99601.16;;;17.08;91.46
11605;BME280;5858;43.076;25.626;2023-06-04T04:44:32;99521.88;;;16.45;90.85
11605;BME280;5858;43.076;25.626;2023-06-04T04:46:59;99643.84;;;17.31;91.77
11605;BME280;5858;43.076;25.626;2023-06-04T04:49:28;99631.94;;;17.39;90.86
11605;BME280;5858;43.076;25.626;2023-06-04T04:51:55;99605.03;;;17.19;91.41
11605;BME280;5858;43.076;25.626;2023-06-04T04:54:22;99570.41;;;17.03;92.31
11605;BME280;5858;43.076;25.626;2023-06-04T04:56:49;99604.78;;;17.27;93.61
11605;BME280;5858;43.076;25.626;2023-06-04T04:59:18;99570.66;;;17.26;92.96
11605;BME280;5858;43.076;25.626;2023-06-04T05:01:48;99590.47;;;17.45;91.99
11605;BME280;5858;43.076;25.626;2023-06-04T05:04:15;99627.97;;;17.66;92.44
11605;BME280;5858;43.076;25.626;2023-06-04T05:06:42;99591.38;;;17.63;91.48
11605;BME280;5858;43.076;25.626;2023-06-04T05:09:09;99582.47;;;17.56;92.15
11605;BME280;5858;43.076;25.626;2023-06-04T05:11:36;99633.06;;;17.81;92.60
11605;BME280;5858;43.076;25.626;2023-06-04T05:14:03;99639.16;;;18.01;91.95
11605;BME280;5858;43.076;25.626;2023-06-04T05:16:32;99483.25;;;17.07;90.98
11605;BME280;5858;43.076;25.626;2023-06-04T05:19:00;99598.09;;;17.79;91.34
11605;BME280;5858;43.076;25.626;2023-06-04T05:21:28;99614.72;;;17.83;91.52
11605;BME280;5858;43.076;25.626;2023-06-04T05:23:55;99656.31;;;18.13;91.69
11605;BME280;5858;43.076;25.626;2023-06-04T05:26:22;99535.81;;;17.36;91.69
11605;BME280;5858;43.076;25.626;2023-06-04T05:28:51;99654.66;;;18.31;92.33
11605;BME280;5858;43.076;25.626;2023-06-04T05:31:19;99553.88;;;17.67;92.42
11605;BME280;5858;43.076;25.626;2023-06-04T05:33:47;99540.34;;;17.67;91.81
11605;BME280;5858;43.076;25.626;2023-06-04T05:36:14;99658.22;;;18.68;91.63
11605;BME280;5858;43.076;25.626;2023-06-04T05:38:43;99622.84;;;18.63;90.94
11605;BME280;5858;43.076;25.626;2023-06-04T05:41:10;99576.69;;;18.51;90.46
11605;BME280;5858;43.076;25.626;2023-06-04T05:43:38;99589.31;;;18.57;89.18
11605;BME280;5858;43.076;25.626;2023-06-04T05:46:05;99672.50;;;19.23;88.87
11605;BME280;5858;43.076;25.626;2023-06-04T05:48:33;99566.53;;;18.46;88.07
11605;BME280;5858;43.076;25.626;2023-06-04T05:51:02;99519.59;;;18.16;88.66
11605;BME280;5858;43.076;25.626;2023-06-04T05:53:29;99648.84;;;19.00;88.39
11605;BME280;5858;43.076;25.626;2023-06-04T05:55:56;99687.78;;;19.36;87.65
11605;BME280;5858;43.076;25.626;2023-06-04T05:58:23;99532.66;;;18.37;87.26
11605;BME280;5858;43.076;25.626;2023-06-04T06:00:58;99503.53;;;18.33;88.24
11605;BME280;5858;43.076;25.626;2023-06-04T06:03:26;99601.47;;;19.14;87.94
11605;BME280;5858;43.076;25.626;2023-06-04T06:05:55;99592.19;;;19.22;87.04
11605;BME280;5858;43.076;25.626;2023-06-04T06:08:25;99599.22;;;19.53;85.71
11605;BME280;5858;43.076;25.626;2023-06-04T06:10:52;99692.78;;;20.62;84.00
11605;BME280;5858;43.076;25.626;2023-06-04T06:13:19;99610.03;;;21.15;82.99
11605;BME280;5858;43.076;25.626;2023-06-04T06:15:47;99594.53;;;22.16;73.94
11605;BME280;5858;43.076;25.626;2023-06-04T06:18:14;99604.38;;;22.61;71.11
11605;BME280;5858;43.076;25.626;2023-06-04T06:20:42;99582.69;;;22.49;70.34
11605;BME280;5858;43.076;25.626;2023-06-04T06:23:09;99694.19;;;23.33;70.64
11605;BME280;5858;43.076;25.626;2023-06-04T06:25:37;99543.13;;;21.86;71.73
11605;BME280;5858;43.076;25.626;2023-06-04T06:28:05;99606.09;;;22.45;71.71
11605;BME280;5858;43.076;25.626;2023-06-04T06:30:32;99607.13;;;22.83;70.77
11605;BME280;5858;43.076;25.626;2023-06-04T06:33:00;99684.78;;;22.97;71.29
11605;BME280;5858;43.076;25.626;2023-06-04T07:05:11;99680.66;;;21.50;81.08
11605;BME280;5858;43.076;25.626;2023-06-04T07:07:39;99718.78;;;21.50;82.76
11605;BME280;5858;43.076;25.626;2023-06-04T07:10:07;99620.22;;;20.80;83.80
11605;BME280;5858;43.076;25.626;2023-06-04T07:12:34;99705.97;;;21.34;84.02
11605;BME280;5858;43.076;25.626;2023-06-04T07:15:01;99677.38;;;21.08;84.11
11605;BME280;5858;43.076;25.626;2023-06-04T07:17:28;99636.22;;;20.76;83.58
11605;BME280;5858;43.076;25.626;2023-06-04T07:19:55;99665.97;;;20.94;84.21
11605;BME280;5858;43.076;25.626;2023-06-04T07:22:24;99667.88;;;20.94;84.54
11605;BME280;5858;43.076;25.626;2023-06-04T07:24:51;99647.84;;;21.00;84.39
11605;BME280;5858;43.076;25.626;2023-06-04T07:27:18;99638.75;;;20.94;83.74
11605;BME280;5858;43.076;25.626;2023-06-04T07:29:47;99674.91;;;21.06;84.02
11605;BME280;5858;43.076;25.626;2023-06-04T07:32:14;99666.28;;;20.69;84.11
11605;BME280;5858;43.076;25.626;2023-06-04T07:34:42;99735.91;;;20.82;85.13
11605;BME280;5858;43.076;25.626;2023-06-04T07:37:09;99727.38;;;20.90;86.58
11605;BME280;5858;43.076;25.626;2023-06-04T07:39:39;99722.88;;;20.96;86.58
11605;BME280;5858;43.076;25.626;2023-06-04T07:42:07;99641.84;;;20.58;87.12
11605;BME280;5858;43.076;25.626;2023-06-04T07:44:36;99722.53;;;21.21;87.03
11605;BME280;5858;43.076;25.626;2023-06-04T07:47:03;99625.00;;;20.72;86.58
11605;BME280;5858;43.076;25.626;2023-06-04T07:49:30;99732.97;;;21.52;86.04
11605;BME280;5858;43.076;25.626;2023-06-04T07:51:58;99690.81;;;21.55;84.72
11605;BME280;5858;43.076;25.626;2023-06-04T07:54:25;99731.31;;;21.96;81.00
11605;BME280;5858;43.076;25.626;2023-06-04T07:56:57;99746.84;;;22.13;80.58
11605;BME280;5858;43.076;25.626;2023-06-04T07:59:24;99686.22;;;22.06;79.44
11605;BME280;5858;43.076;25.626;2023-06-04T08:01:51;99563.00;;;21.31;80.22
11605;BME280;5858;43.076;25.626;2023-06-04T08:04:18;99760.16;;;22.26;79.61
11605;BME280;5858;43.076;25.626;2023-06-04T08:06:45;99673.59;;;21.83;79.17
11605;BME280;5858;43.076;25.626;2023-06-04T08:09:15;99740.41;;;22.36;79.87
11605;BME280;5858;43.076;25.626;2023-06-04T08:11:43;99743.03;;;22.47;79.06
11605;BME280;5858;43.076;25.626;2023-06-04T08:14:19;99599.84;;;21.73;76.18
11605;BME280;5858;43.076;25.626;2023-06-04T08:16:52;99644.03;;;22.08;76.47
11605;BME280;5858;43.076;25.626;2023-06-04T08:19:20;99626.28;;;22.06;74.89
11605;BME280;5858;43.076;25.626;2023-06-04T08:21:52;99681.19;;;21.81;76.92
11605;BME280;5858;43.076;25.626;2023-06-04T08:24:22;99732.56;;;22.39;75.34
11605;BME280;5858;43.076;25.626;2023-06-04T08:26:49;99771.84;;;22.60;75.54
11605;BME280;5858;43.076;25.626;2023-06-04T08:29:21;99615.38;;;21.72;75.22
11605;BME280;5858;43.076;25.626;2023-06-04T08:31:48;99602.75;;;21.83;74.54
11605;BME280;5858;43.076;25.626;2023-06-04T08:34:15;99616.59;;;21.98;74.07
11605;BME280;5858;43.076;25.626;2023-06-04T08:36:42;99695.09;;;22.51;74.60
11605;BME280;5858;43.076;25.626;2023-06-04T08:39:10;99665.53;;;22.43;72.90
11605;BME280;5858;43.076;25.626;2023-06-04T08:41:49;99611.97;;;21.98;73.63
11605;BME280;5858;43.076;25.626;2023-06-04T08:44:21;99593.38;;;22.12;73.23
11605;BME280;5858;43.076;25.626;2023-06-04T08:47:08;99762.63;;;23.21;70.43
11605;BME280;5858;43.076;25.626;2023-06-04T08:49:36;99715.50;;;23.09;72.15
11605;BME280;5858;43.076;25.626;2023-06-04T08:52:03;99669.94;;;22.88;71.55
11605;BME280;5858;43.076;25.626;2023-06-04T08:54:41;99698.56;;;22.85;69.63
11605;BME280;5858;43.076;25.626;2023-06-04T08:57:19;99623.75;;;22.21;70.10
11605;BME280;5858;43.076;25.626;2023-06-04T08:59:50;99764.00;;;23.02;71.15
11605;BME280;5858;43.076;25.626;2023-06-04T09:02:17;99699.41;;;22.69;70.75
11605;BME280;5858;43.076;25.626;2023-06-04T09:04:45;99707.66;;;22.91;71.74
11605;BME280;5858;43.076;25.626;2023-06-04T09:07:19;99707.31;;;22.87;68.71
11605;BME280;5858;43.076;25.626;2023-06-04T09:09:53;99666.75;;;22.74;67.80
11605;BME280;5858;43.076;25.626;2023-06-04T09:12:23;99686.88;;;22.90;66.23
11605;BME280;5858;43.076;25.626;2023-06-04T09:15:10;99769.94;;;23.92;67.19
11605;BME280;5858;43.076;25.626;2023-06-04T09:17:45;99738.53;;;23.94;64.51
11605;BME280;5858;43.076;25.626;2023-06-04T09:23:24;99642.78;;;23.25;61.68
11605;BME280;5858;43.076;25.626;2023-06-04T09:25:54;99682.63;;;23.53;62.44
11605;BME280;5858;43.076;25.626;2023-06-04T09:28:24;99768.13;;;24.29;61.70
11605;BME280;5858;43.076;25.626;2023-06-04T09:31:02;99623.16;;;23.28;58.57
11605;BME280;5858;43.076;25.626;2023-06-04T09:33:29;99724.41;;;24.07;59.69
11605;BME280;5858;43.076;25.626;2023-06-04T09:35:57;99637.09;;;23.32;60.32
11605;BME280;5858;43.076;25.626;2023-06-04T09:38:34;99683.81;;;23.57;61.34
11605;BME280;5858;43.076;25.626;2023-06-04T09:41:01;99767.63;;;24.37;61.61
11605;BME280;5858;43.076;25.626;2023-06-04T09:43:32;99632.66;;;23.84;61.29
11605;BME280;5858;43.076;25.626;2023-06-04T09:46:12;99755.91;;;24.89;57.32
11605;BME280;5858;43.076;25.626;2023-06-04T09:48:40;99721.63;;;24.76;56.52
11605;BME280;5858;43.076;25.626;2023-06-04T09:51:12;99761.03;;;25.28;56.76
11605;BME280;5858;43.076;25.626;2023-06-04T09:53:41;99655.34;;;24.69;53.31
11605;BME280;5858;43.076;25.626;2023-06-04T09:56:10;99690.19;;;24.89;54.12
11605;BME280;5858;43.076;25.626;2023-06-04T09:59:02;99719.38;;;25.31;55.76
11605;BME280;5858;43.076;25.626;2023-06-04T10:01:38;99648.56;;;24.92;51.62
11605;BME280;5858;43.076;25.626;2023-06-04T10:04:07;99610.28;;;24.30;51.62
11605;BME280;5858;43.076;25.626;2023-06-04T10:06:35;99664.25;;;24.44;52.63
11605;BME280;5858;43.076;25.626;2023-06-04T10:09:07;99602.59;;;23.84;52.46
11605;BME280;5858;43.076;25.626;2023-06-04T10:11:35;99716.56;;;24.53;55.80
11605;BME280;5858;43.076;25.626;2023-06-04T10:14:10;99607.75;;;23.76;53.54
11605;BME280;5858;43.076;25.626;2023-06-04T10:16:41;99607.78;;;23.54;53.21
11605;BME280;5858;43.076;25.626;2023-06-04T10:19:09;99691.34;;;24.46;54.82
11605;BME280;5858;43.076;25.626;2023-06-04T10:21:37;99637.16;;;24.01;52.80
11605;BME280;5858;43.076;25.626;2023-06-04T10:24:05;99640.25;;;24.14;54.12
11605;BME280;5858;43.076;25.626;2023-06-04T10:26:33;99620.72;;;23.96;52.93
11605;BME280;5858;43.076;25.626;2023-06-04T10:29:02;99724.19;;;24.51;53.93
11605;BME280;5858;43.076;25.626;2023-06-04T10:31:29;99756.97;;;24.41;54.57
11605;BME280;5858;43.076;25.626;2023-06-04T10:33:59;99676.91;;;24.13;55.45
11605;BME280;5858;43.076;25.626;2023-06-04T10:36:28;99699.19;;;24.32;56.01
11605;BME280;5858;43.076;25.626;2023-06-04T10:38:57;99703.09;;;24.09;55.73
11605;BME280;5858;43.076;25.626;2023-06-04T10:41:25;99662.00;;;23.62;56.96
11605;BME280;5858;43.076;25.626;2023-06-04T10:44:08;99712.06;;;24.32;56.45
11605;BME280;5858;43.076;25.626;2023-06-04T10:46:38;99623.06;;;23.50;55.91
11605;BME280;5858;43.076;25.626;2023-06-04T10:49:09;99693.88;;;24.15;56.47
11605;BME280;5858;43.076;25.626;2023-06-04T10:51:40;99747.72;;;24.47;54.55
11605;BME280;5858;43.076;25.626;2023-06-04T10:54:09;99731.41;;;24.62;54.55
11605;BME280;5858;43.076;25.626;2023-06-04T10:56:36;99604.72;;;23.72;54.94
11605;BME280;5858;43.076;25.626;2023-06-04T10:59:13;99693.03;;;24.15;57.12
11605;BME280;5858;43.076;25.626;2023-06-04T11:01:40;99578.78;;;23.48;53.82
11605;BME280;5858;43.076;25.626;2023-06-04T11:04:19;99691.22;;;24.73;52.72
11605;BME280;5858;43.076;25.626;2023-06-04T11:07:07;99690.91;;;24.64;50.87
11605;BME280;5858;43.076;25.626;2023-06-04T11:09:50;99579.78;;;24.11;51.25
11605;BME280;5858;43.076;25.626;2023-06-04T11:12:41;99609.69;;;24.23;49.68
11605;BME280;5858;43.076;25.626;2023-06-04T11:15:36;99733.81;;;25.06;49.92
11605;BME280;5858;43.076;25.626;2023-06-04T11:18:21;99640.47;;;24.50;49.87
11605;BME280;5858;43.076;25.626;2023-06-04T11:21:01;99729.06;;;24.91;51.40
11605;BME280;5858;43.076;25.626;2023-06-04T11:23:28;99601.31;;;24.39;50.21
11605;BME280;5858;43.076;25.626;2023-06-04T11:26:07;99622.63;;;25.05;50.24
11605;BME280;5858;43.076;25.626;2023-06-04T11:28:34;99646.78;;;25.38;48.11
11605;BME280;5858;43.076;25.626;2023-06-04T11:31:02;99725.56;;;26.04;48.59
11605;BME280;5858;43.076;25.626;2023-06-04T11:33:41;99684.13;;;25.80;48.33
11605;BME280;5858;43.076;25.626;2023-06-04T11:36:21;99672.03;;;25.61;47.36
11605;BME280;5858;43.076;25.626;2023-06-04T11:41:42;99731.88;;;26.10;48.82
11605;BME280;5858;43.076;25.626;2023-06-04T11:44:11;99567.06;;;25.09;49.13
11605;BME280;5858;43.076;25.626;2023-06-04T11:46:42;99724.72;;;26.19;48.55
11605;BME280;5858;43.076;25.626;2023-06-04T11:49:28;99647.69;;;25.69;48.68
11605;BME280;5858;43.076;25.626;2023-06-04T11:52:17;99667.63;;;25.45;48.66
11605;BME280;5858;43.076;25.626;2023-06-04T11:55:13;99555.63;;;24.45;49.67
11605;BME280;5858;43.076;25.626;2023-06-04T11:57:43;99653.72;;;24.73;49.67
11605;BME280;5858;43.076;25.626;2023-06-04T12:00:13;99593.94;;;24.45;50.86
11605;BME280;5858;43.076;25.626;2023-06-04T12:02:49;99541.69;;;23.94;52.09
11605;BME280;5858;43.076;25.626;2023-06-04T12:05:18;99703.84;;;24.79;53.01
11605;BME280;5858;43.076;25.626;2023-06-04T12:07:50;99576.03;;;24.22;51.21
11605;BME280;5858;43.076;25.626;2023-06-04T12:10:18;99613.41;;;24.59;50.20
11605;BME280;5858;43.076;25.626;2023-06-04T12:13:02;99549.69;;;24.06;51.63
11605;BME280;5858;43.076;25.626;2023-06-04T12:15:30;99737.31;;;24.96;51.95
11605;BME280;5858;43.076;25.626;2023-06-04T12:18:01;99614.19;;;24.44;52.11
11605;BME280;5858;43.076;25.626;2023-06-04T12:20:36;99692.03;;;24.73;53.68
11605;BME280;5858;43.076;25.626;2023-06-04T12:23:21;99628.69;;;24.44;52.84
11605;BME280;5858;43.076;25.626;2023-06-04T12:25:52;99617.97;;;24.33;52.92
11605;BME280;5858;43.076;25.626;2023-06-04T12:28:37;99721.38;;;24.83;52.70
11605;BME280;5858;43.076;25.626;2023-06-04T12:31:17;99669.44;;;24.46;52.28
11605;BME280;5858;43.076;25.626;2023-06-04T12:33:45;99710.59;;;24.61;52.58
11605;BME280;5858;43.076;25.626;2023-06-04T12:36:13;99601.91;;;24.52;52.25
11605;BME280;5858;43.076;25.626;2023-06-04T12:38:41;99711.81;;;25.68;49.66
11605;BME280;5858;43.076;25.626;2023-06-04T12:41:09;99692.06;;;25.61;48.80
11605;BME280;5858;43.076;25.626;2023-06-04T12:43:55;99718.94;;;26.00;48.70
11605;BME280;5858;43.076;25.626;2023-06-04T12:46:28;99553.84;;;24.81;48.43
11605;BME280;5858;43.076;25.626;2023-06-04T12:49:08;99582.00;;;24.66;46.98
11605;BME280;5858;43.076;25.626;2023-06-04T12:51:41;99602.28;;;24.86;48.05
11605;BME280;5858;43.076;25.626;2023-06-04T12:54:17;99689.53;;;25.29;48.33
11605;BME280;5858;43.076;25.626;2023-06-04T12:56:54;99661.28;;;25.24;47.47
11605;BME280;5858;43.076;25.626;2023-06-04T12:59:22;99562.59;;;24.88;48.67
11605;BME280;5858;43.076;25.626;2023-06-04T13:01:49;99629.00;;;25.46;47.21
11605;BME280;5858;43.076;25.626;2023-06-04T13:04:17;99736.25;;;26.51;47.07
11605;BME280;5858;43.076;25.626;2023-06-04T13:06:44;99726.88;;;26.47;46.33
11605;BME280;5858;43.076;25.626;2023-06-04T13:09:15;99621.63;;;25.82;45.90
11605;BME280;5858;43.076;25.626;2023-06-04T13:11:49;99644.91;;;25.95;45.57
11605;BME280;5858;43.076;25.626;2023-06-04T13:14:31;99729.13;;;26.15;45.75
11605;BME280;5858;43.076;25.626;2023-06-04T13:17:07;99651.78;;;25.82;46.30
11605;BME280;5858;43.076;25.626;2023-06-04T13:19:35;99729.66;;;26.37;45.81
11605;BME280;5858;43.076;25.626;2023-06-04T13:22:05;99590.38;;;25.78;45.58
11605;BME280;5858;43.076;25.626;2023-06-04T13:24:34;99582.13;;;25.37;45.73
11605;BME280;5858;43.076;25.626;2023-06-04T13:27:03;99698.13;;;26.14;45.03
11605;BME280;5858;43.076;25.626;2023-06-04T13:29:34;99578.03;;;25.35;44.89
11605;BME280;5858;43.076;25.626;2023-06-04T13:32:01;99649.84;;;25.88;45.45
11605;BME280;5858;43.076;25.626;2023-06-04T13:34:34;99630.09;;;25.65;44.44
11605;BME280;5858;43.076;25.626;2023-06-04T13:37:02;99690.69;;;26.25;44.89
11605;BME280;5858;43.076;25.626;2023-06-04T13:39:32;99609.28;;;25.85;44.00
11605;BME280;5858;43.076;25.626;2023-06-04T13:42:16;99663.00;;;25.96;44.54
11605;BME280;5858;43.076;25.626;2023-06-04T13:44:47;99602.69;;;25.50;43.10
11605;BME280;5858;43.076;25.626;2023-06-04T13:47:14;99578.56;;;25.32;43.10